sensor_id;sensor_type;location;lat;lon;timestamp;P1;durP1;ratioP1;P2;durP2;ratioP2
18875;SDS011;9570;50.854;13.778;2023-04-15T00:01:23;0.70;;;0.70;;
18875;SDS011;9570;50.854;13.778;2023-04-15T00:03:50;0.50;;;0.50;;
18875;SDS011;9570;50.854;13.778;2023-04-15T00:06:19;0.80;;;0.80;;
18875;SDS011;9570;50.854;13.778;2023-04-15T00:08:45;0.70;;;0.70;;
18875;SDS011;9570;50.854;13.778;2023-04-15T00:11:12;0.70;;;0.70;;
18875;SDS011;9570;50.854;13.778;2023-04-15T00:13:38;0.70;;;0.70;;
18875;SDS011;9570;50.854;13.778;2023-04-15T00:16:04;0.60;;;0.60;;
18875;SDS011;9570;50.854;13.778;2023-04-15T00:18:30;0.80;;;0.80;;
18875;SDS011;9570;50.854;13.778;2023-04-15T00:20:56;0.70;;;0.70;;
18875;SDS011;9570;50.854;13.778;2023-04-15T00:23:22;0.77;;;0.70;;
18875;SDS011;9570;50.854;13.778;2023-04-15T00:25:48;1.13;;;0.70;;
18875;SDS011;9570;50.854;13.778;2023-04-15T00:28:13;0.77;;;0.77;;
18875;SDS011;9570;50.854;13.778;2023-04-15T00:30:39;0.70;;;0.70;;
18875;SDS011;9570;50.854;13.778;2023-04-15T00:33:04;0.80;;;0.80;;
18875;SDS011;9570;50.854;13.778;2023-04-15T00:35:30;1.60;;;0.70;;
18875;SDS011;9570;50.854;13.778;2023-04-15T00:37:56;0.60;;;0.60;;
18875;SDS011;9570;50.854;13.778;2023-04-15T00:40:22;0.60;;;0.60;;
18875;SDS011;9570;50.854;13.778;2023-04-15T00:42:48;0.63;;;0.63;;
18875;SDS011;9570;50.854;13.778;2023-04-15T00:45:14;0.70;;;0.70;;
18875;SDS011;9570;50.854;13.778;2023-04-15T00:47:40;0.60;;;0.60;;
18875;SDS011;9570;50.854;13.778;2023-04-15T00:50:07;0.50;;;0.50;;
18875;SDS011;9570;50.854;13.778;2023-04-15T00:52:33;0.57;;;0.57;;
18875;SDS011;9570;50.854;13.778;2023-04-15T00:54:59;0.50;;;0.50;;
18875;SDS011;9570;50.854;13.778;2023-04-15T00:57:25;0.60;;;0.60;;
18875;SDS011;9570;50.854;13.778;2023-04-15T00:59:51;0.70;;;0.70;;
18875;SDS011;9570;50.854;13.778;2023-04-15T01:02:17;0.80;;;0.80;;
18875;SDS011;9570;50.854;13.778;2023-04-15T01:04:43;0.63;;;0.63;;
18875;SDS011;9570;50.854;13.778;2023-04-15T01:07:09;0.70;;;0.70;;
18875;SDS011;9570;50.854;13.778;2023-04-15T01:09:34;0.60;;;0.60;;
18875;SDS011;9570;50.854;13.778;2023-04-15T01:12:00;3.57;;;0.60;;
18875;SDS011;9570;50.854;13.778;2023-04-15T01:14:26;0.60;;;0.60;;
18875;SDS011;9570;50.854;13.778;2023-04-15T01:16:52;0.50;;;0.50;;
18875;SDS011;9570;50.854;13.778;2023-04-15T01:19:18;0.60;;;0.60;;
18875;SDS011;9570;50.854;13.778;2023-04-15T01:21:44;0.60;;;0.60;;
18875;SDS011;9570;50.854;13.778;2023-04-15T01:24:09;0.60;;;0.60;;
18875;SDS011;9570;50.854;13.778;2023-04-15T01:26:37;0.50;;;0.50;;
18875;SDS011;9570;50.854;13.778;2023-04-15T01:29:03;0.60;;;0.60;;
18875;SDS011;9570;50.854;13.778;2023-04-15T01:31:29;0.70;;;0.70;;
18875;SDS011;9570;50.854;13.778;2023-04-15T01:33:55;0.67;;;0.67;;
18875;SDS011;9570;50.854;13.778;2023-04-15T01:36:20;0.60;;;0.60;;
18875;SDS011;9570;50.854;13.778;2023-04-15T01:38:46;0.60;;;0.60;;
18875;SDS011;9570;50.854;13.778;2023-04-15T01:41:12;0.70;;;0.70;;
18875;SDS011;9570;50.854;13.778;2023-04-15T01:43:38;0.70;;;0.70;;
18875;SDS011;9570;50.854;13.778;2023-04-15T01:46:03;0.63;;;0.63;;
18875;SDS011;9570;50.854;13.778;2023-04-15T01:48:30;0.70;;;0.70;;
18875;SDS011;9570;50.854;13.778;2023-04-15T01:50:56;0.50;;;0.50;;
18875;SDS011;9570;50.854;13.778;2023-04-15T01:53:22;0.60;;;0.60;;
18875;SDS011;9570;50.854;13.778;2023-04-15T01:55:49;1.13;;;0.57;;
18875;SDS011;9570;50.854;13.778;2023-04-15T01:58:15;0.90;;;0.80;;
18875;SDS011;9570;50.854;13.778;2023-04-15T02:00:41;0.60;;;0.60;;
18875;SDS011;9570;50.854;13.778;2023-04-15T02:03:06;0.60;;;0.60;;
18875;SDS011;9570;50.854;13.778;2023-04-15T02:05:32;0.60;;;0.60;;
18875;SDS011;9570;50.854;13.778;2023-04-15T02:07:57;0.50;;;0.50;;
18875;SDS011;9570;50.854;13.778;2023-04-15T02:10:23;0.60;;;0.60;;
18875;SDS011;9570;50.854;13.778;2023-04-15T02:12:48;0.60;;;0.60;;
18875;SDS011;9570;50.854;13.778;2023-04-15T02:15:14;0.60;;;0.60;;
18875;SDS011;9570;50.854;13.778;2023-04-15T02:17:40;0.60;;;0.60;;
18875;SDS011;9570;50.854;13.778;2023-04-15T02:20:09;0.60;;;0.60;;
18875;SDS011;9570;50.854;13.778;2023-04-15T02:22:35;0.80;;;0.80;;
18875;SDS011;9570;50.854;13.778;2023-04-15T02:25:01;0.60;;;0.60;;
18875;SDS011;9570;50.854;13.778;2023-04-15T02:27:26;0.70;;;0.70;;
18875;SDS011;9570;50.854;13.778;2023-04-15T02:29:52;1.63;;;0.80;;
18875;SDS011;9570;50.854;13.778;2023-04-15T02:32:18;0.80;;;0.70;;
18875;SDS011;9570;50.854;13.778;2023-04-15T02:34:44;1.57;;;0.70;;
18875;SDS011;9570;50.854;13.778;2023-04-15T02:37:13;0.70;;;0.70;;
18875;SDS011;9570;50.854;13.778;2023-04-15T02:39:39;0.80;;;0.80;;
18875;SDS011;9570;50.854;13.778;2023-04-15T02:42:04;1.57;;;0.70;;
18875;SDS011;9570;50.854;13.778;2023-04-15T02:44:30;0.90;;;0.70;;
18875;SDS011;9570;50.854;13.778;2023-04-15T02:46:57;0.70;;;0.70;;
18875;SDS011;9570;50.854;13.778;2023-04-15T02:49:23;0.73;;;0.70;;
18875;SDS011;9570;50.854;13.778;2023-04-15T02:51:49;0.70;;;0.70;;
18875;SDS011;9570;50.854;13.778;2023-04-15T02:54:19;0.60;;;0.60;;
18875;SDS011;9570;50.854;13.778;2023-04-15T02:56:45;0.53;;;0.53;;
18875;SDS011;9570;50.854;13.778;2023-04-15T02:59:11;1.67;;;0.70;;
18875;SDS011;9570;50.854;13.778;2023-04-15T03:01:36;0.60;;;0.60;;
18875;SDS011;9570;50.854;13.778;2023-04-15T03:04:02;0.60;;;0.60;;
18875;SDS011;9570;50.854;13.778;2023-04-15T03:06:28;1.37;;;0.80;;
18875;SDS011;9570;50.854;13.778;2023-04-15T03:08:53;0.57;;;0.57;;
18875;SDS011;9570;50.854;13.778;2023-04-15T03:11:18;0.60;;;0.60;;
18875;SDS011;9570;50.854;13.778;2023-04-15T03:13:45;0.67;;;0.67;;
18875;SDS011;9570;50.854;13.778;2023-04-15T03:16:11;0.80;;;0.80;;
18875;SDS011;9570;50.854;13.778;2023-04-15T03:18:36;0.80;;;0.80;;
18875;SDS011;9570;50.854;13.778;2023-04-15T03:21:02;0.70;;;0.70;;
18875;SDS011;9570;50.854;13.778;2023-04-15T03:23:29;0.60;;;0.60;;
18875;SDS011;9570;50.854;13.778;2023-04-15T03:25:55;1.00;;;0.80;;
18875;SDS011;9570;50.854;13.778;2023-04-15T03:28:21;0.70;;;0.70;;
18875;SDS011;9570;50.854;13.778;2023-04-15T03:30:47;0.83;;;0.80;;
18875;SDS011;9570;50.854;13.778;2023-04-15T03:33:13;0.70;;;0.70;;
18875;SDS011;9570;50.854;13.778;2023-04-15T03:35:38;0.70;;;0.70;;
18875;SDS011;9570;50.854;13.778;2023-04-15T03:38:04;0.90;;;0.87;;
18875;SDS011;9570;50.854;13.778;2023-04-15T03:40:29;0.60;;;0.60;;
18875;SDS011;9570;50.854;13.778;2023-04-15T03:42:55;0.70;;;0.70;;
18875;SDS011;9570;50.854;13.778;2023-04-15T03:45:20;0.63;;;0.63;;
18875;SDS011;9570;50.854;13.778;2023-04-15T03:47:46;1.93;;;0.77;;
18875;SDS011;9570;50.854;13.778;2023-04-15T03:50:11;0.70;;;0.70;;
18875;SDS011;9570;50.854;13.778;2023-04-15T03:52:37;0.70;;;0.70;;
18875;SDS011;9570;50.854;13.778;2023-04-15T03:55:02;0.80;;;0.80;;
18875;SDS011;9570;50.854;13.778;2023-04-15T03:57:28;0.77;;;0.73;;
18875;SDS011;9570;50.854;13.778;2023-04-15T03:59:54;0.73;;;0.73;;
18875;SDS011;9570;50.854;13.778;2023-04-15T04:02:19;0.70;;;0.70;;
18875;SDS011;9570;50.854;13.778;2023-04-15T04:04:45;0.83;;;0.83;;
18875;SDS011;9570;50.854;13.778;2023-04-15T04:07:14;0.77;;;0.77;;
18875;SDS011;9570;50.854;13.778;2023-04-15T04:09:40;0.80;;;0.80;;
18875;SDS011;9570;50.854;13.778;2023-04-15T04:12:06;0.90;;;0.90;;
18875;SDS011;9570;50.854;13.778;2023-04-15T04:14:31;0.63;;;0.63;;
18875;SDS011;9570;50.854;13.778;2023-04-15T04:16:57;0.80;;;0.80;;
18875;SDS011;9570;50.854;13.778;2023-04-15T04:19:22;1.07;;;1.00;;
18875;SDS011;9570;50.854;13.778;2023-04-15T04:21:48;1.07;;;0.77;;
18875;SDS011;9570;50.854;13.778;2023-04-15T04:24:13;0.77;;;0.77;;
18875;SDS011;9570;50.854;13.778;2023-04-15T04:26:38;0.83;;;0.70;;
18875;SDS011;9570;50.854;13.778;2023-04-15T04:29:04;0.70;;;0.70;;
18875;SDS011;9570;50.854;13.778;2023-04-15T04:31:30;0.70;;;0.70;;
18875;SDS011;9570;50.854;13.778;2023-04-15T04:33:56;0.70;;;0.70;;
18875;SDS011;9570;50.854;13.778;2023-04-15T04:36:21;0.93;;;0.90;;
18875;SDS011;9570;50.854;13.778;2023-04-15T04:38:46;0.80;;;0.80;;
18875;SDS011;9570;50.854;13.778;2023-04-15T04:41:12;2.83;;;1.00;;
18875;SDS011;9570;50.854;13.778;2023-04-15T04:43:37;0.67;;;0.67;;
18875;SDS011;9570;50.854;13.778;2023-04-15T04:46:03;0.77;;;0.77;;
18875;SDS011;9570;50.854;13.778;2023-04-15T04:48:28;0.77;;;0.73;;
18875;SDS011;9570;50.854;13.778;2023-04-15T04:50:54;0.70;;;0.70;;
18875;SDS011;9570;50.854;13.778;2023-04-15T04:53:19;0.97;;;0.73;;
18875;SDS011;9570;50.854;13.778;2023-04-15T04:55:45;0.60;;;0.60;;
18875;SDS011;9570;50.854;13.778;2023-04-15T04:58:10;0.60;;;0.60;;
18875;SDS011;9570;50.854;13.778;2023-04-15T05:00:36;2.30;;;0.60;;
18875;SDS011;9570;50.854;13.778;2023-04-15T05:03:02;0.70;;;0.63;;
18875;SDS011;9570;50.854;13.778;2023-04-15T05:05:28;0.50;;;0.50;;
18875;SDS011;9570;50.854;13.778;2023-04-15T05:07:53;0.70;;;0.60;;
18875;SDS011;9570;50.854;13.778;2023-04-15T05:10:19;0.40;;;0.40;;
18875;SDS011;9570;50.854;13.778;2023-04-15T05:12:44;0.60;;;0.60;;
18875;SDS011;9570;50.854;13.778;2023-04-15T05:15:10;0.70;;;0.70;;
18875;SDS011;9570;50.854;13.778;2023-04-15T05:17:36;0.90;;;0.70;;
18875;SDS011;9570;50.854;13.778;2023-04-15T05:20:01;1.40;;;0.70;;
18875;SDS011;9570;50.854;13.778;2023-04-15T05:22:27;1.27;;;0.83;;
18875;SDS011;9570;50.854;13.778;2023-04-15T05:24:53;1.40;;;0.67;;
18875;SDS011;9570;50.854;13.778;2023-04-15T05:27:18;0.60;;;0.60;;
18875;SDS011;9570;50.854;13.778;2023-04-15T05:29:44;1.70;;;0.63;;
18875;SDS011;9570;50.854;13.778;2023-04-15T05:32:10;0.70;;;0.70;;
18875;SDS011;9570;50.854;13.778;2023-04-15T05:34:35;0.80;;;0.80;;
18875;SDS011;9570;50.854;13.778;2023-04-15T05:37:01;2.30;;;1.80;;
18875;SDS011;9570;50.854;13.778;2023-04-15T05:39:27;2.23;;;1.60;;
18875;SDS011;9570;50.854;13.778;2023-04-15T05:41:52;1.40;;;1.20;;
18875;SDS011;9570;50.854;13.778;2023-04-15T05:44:18;1.77;;;1.50;;
18875;SDS011;9570;50.854;13.778;2023-04-15T05:46:43;1.67;;;1.47;;
18875;SDS011;9570;50.854;13.778;2023-04-15T05:49:09;3.37;;;1.93;;
18875;SDS011;9570;50.854;13.778;2023-04-15T05:51:34;2.00;;;1.60;;
18875;SDS011;9570;50.854;13.778;2023-04-15T05:54:00;1.90;;;1.17;;
18875;SDS011;9570;50.854;13.778;2023-04-15T05:56:25;2.30;;;1.10;;
18875;SDS011;9570;50.854;13.778;2023-04-15T05:58:52;2.80;;;1.10;;
18875;SDS011;9570;50.854;13.778;2023-04-15T06:01:17;0.80;;;0.77;;
18875;SDS011;9570;50.854;13.778;2023-04-15T06:03:43;2.50;;;1.30;;
18875;SDS011;9570;50.854;13.778;2023-04-15T06:06:08;1.23;;;1.07;;
18875;SDS011;9570;50.854;13.778;2023-04-15T06:08:34;1.40;;;1.10;;
18875;SDS011;9570;50.854;13.778;2023-04-15T06:11:00;1.10;;;1.00;;
18875;SDS011;9570;50.854;13.778;2023-04-15T06:13:25;1.73;;;1.30;;
18875;SDS011;9570;50.854;13.778;2023-04-15T06:15:51;1.10;;;1.00;;
18875;SDS011;9570;50.854;13.778;2023-04-15T06:18:17;1.70;;;1.30;;
18875;SDS011;9570;50.854;13.778;2023-04-15T06:20:43;2.03;;;1.60;;
18875;SDS011;9570;50.854;13.778;2023-04-15T06:23:09;1.50;;;1.30;;
18875;SDS011;9570;50.854;13.778;2023-04-15T06:25:34;1.90;;;1.60;;
18875;SDS011;9570;50.854;13.778;2023-04-15T06:28:00;1.83;;;1.50;;
18875;SDS011;9570;50.854;13.778;2023-04-15T06:30:25;1.50;;;1.40;;
18875;SDS011;9570;50.854;13.778;2023-04-15T06:32:51;1.10;;;1.00;;
18875;SDS011;9570;50.854;13.778;2023-04-15T06:35:16;2.83;;;1.37;;
18875;SDS011;9570;50.854;13.778;2023-04-15T06:37:42;0.83;;;0.83;;
18875;SDS011;9570;50.854;13.778;2023-04-15T06:40:07;0.80;;;0.80;;
18875;SDS011;9570;50.854;13.778;2023-04-15T06:42:34;0.77;;;0.77;;
18875;SDS011;9570;50.854;13.778;2023-04-15T06:45:00;0.80;;;0.80;;
18875;SDS011;9570;50.854;13.778;2023-04-15T06:47:26;1.93;;;0.80;;
18875;SDS011;9570;50.854;13.778;2023-04-15T06:49:51;0.70;;;0.70;;
18875;SDS011;9570;50.854;13.778;2023-04-15T06:52:17;0.93;;;0.70;;
18875;SDS011;9570;50.854;13.778;2023-04-15T06:54:42;0.80;;;0.80;;
18875;SDS011;9570;50.854;13.778;2023-04-15T06:57:08;0.70;;;0.70;;
18875;SDS011;9570;50.854;13.778;2023-04-15T06:59:33;0.80;;;0.80;;
18875;SDS011;9570;50.854;13.778;2023-04-15T07:01:59;0.97;;;0.80;;
18875;SDS011;9570;50.854;13.778;2023-04-15T07:04:25;0.70;;;0.70;;
18875;SDS011;9570;50.854;13.778;2023-04-15T07:06:51;1.00;;;0.87;;
18875;SDS011;9570;50.854;13.778;2023-04-15T07:09:17;0.80;;;0.80;;
18875;SDS011;9570;50.854;13.778;2023-04-15T07:11:43;0.60;;;0.60;;
18875;SDS011;9570;50.854;13.778;2023-04-15T07:14:09;0.73;;;0.50;;
18875;SDS011;9570;50.854;13.778;2023-04-15T07:16:34;1.20;;;0.70;;
18875;SDS011;9570;50.854;13.778;2023-04-15T07:19:00;0.63;;;0.63;;
18875;SDS011;9570;50.854;13.778;2023-04-15T07:21:26;0.30;;;0.30;;
18875;SDS011;9570;50.854;13.778;2023-04-15T07:23:51;0.60;;;0.60;;
18875;SDS011;9570;50.854;13.778;2023-04-15T07:26:17;0.50;;;0.50;;
18875;SDS011;9570;50.854;13.778;2023-04-15T07:28:42;0.97;;;0.70;;
18875;SDS011;9570;50.854;13.778;2023-04-15T07:31:10;0.60;;;0.60;;
18875;SDS011;9570;50.854;13.778;2023-04-15T07:33:36;0.73;;;0.70;;
18875;SDS011;9570;50.854;13.778;2023-04-15T07:36:01;0.70;;;0.70;;
18875;SDS011;9570;50.854;13.778;2023-04-15T07:38:27;2.40;;;1.10;;
18875;SDS011;9570;50.854;13.778;2023-04-15T07:40:52;0.80;;;0.80;;
18875;SDS011;9570;50.854;13.778;2023-04-15T07:43:18;1.10;;;1.00;;
18875;SDS011;9570;50.854;13.778;2023-04-15T07:45:45;0.60;;;0.60;;
18875;SDS011;9570;50.854;13.778;2023-04-15T07:48:10;0.67;;;0.67;;
18875;SDS011;9570;50.854;13.778;2023-04-15T07:50:36;1.43;;;0.80;;
18875;SDS011;9570;50.854;13.778;2023-04-15T07:53:02;2.73;;;2.53;;
18875;SDS011;9570;50.854;13.778;2023-04-15T07:55:27;2.60;;;2.40;;
18875;SDS011;9570;50.854;13.778;2023-04-15T07:57:54;2.83;;;2.63;;
18875;SDS011;9570;50.854;13.778;2023-04-15T08:00:20;3.00;;;2.80;;
18875;SDS011;9570;50.854;13.778;2023-04-15T08:02:45;2.70;;;2.50;;
18875;SDS011;9570;50.854;13.778;2023-04-15T08:05:12;2.60;;;2.40;;
18875;SDS011;9570;50.854;13.778;2023-04-15T08:07:38;3.23;;;2.93;;
18875;SDS011;9570;50.854;13.778;2023-04-15T08:10:03;3.30;;;3.00;;
18875;SDS011;9570;50.854;13.778;2023-04-15T08:12:30;3.10;;;2.90;;
18875;SDS011;9570;50.854;13.778;2023-04-15T08:14:56;3.30;;;3.00;;
18875;SDS011;9570;50.854;13.778;2023-04-15T08:17:21;3.00;;;2.73;;
18875;SDS011;9570;50.854;13.778;2023-04-15T08:19:47;3.60;;;3.30;;
18875;SDS011;9570;50.854;13.778;2023-04-15T08:22:13;3.70;;;3.40;;
18875;SDS011;9570;50.854;13.778;2023-04-15T08:24:39;4.60;;;3.27;;
18875;SDS011;9570;50.854;13.778;2023-04-15T08:27:04;3.73;;;3.40;;
18875;SDS011;9570;50.854;13.778;2023-04-15T08:29:30;3.70;;;3.40;;
18875;SDS011;9570;50.854;13.778;2023-04-15T08:31:56;3.90;;;3.60;;
18875;SDS011;9570;50.854;13.778;2023-04-15T08:34:24;3.83;;;3.50;;
18875;SDS011;9570;50.854;13.778;2023-04-15T08:36:49;4.40;;;4.00;;
18875;SDS011;9570;50.854;13.778;2023-04-15T08:39:15;4.10;;;3.80;;
18875;SDS011;9570;50.854;13.778;2023-04-15T08:41:45;4.07;;;3.67;;
18875;SDS011;9570;50.854;13.778;2023-04-15T08:44:12;4.20;;;3.80;;
18875;SDS011;9570;50.854;13.778;2023-04-15T08:46:38;5.00;;;4.20;;
18875;SDS011;9570;50.854;13.778;2023-04-15T08:49:06;3.70;;;3.40;;
18875;SDS011;9570;50.854;13.778;2023-04-15T08:51:35;4.53;;;3.70;;
18875;SDS011;9570;50.854;13.778;2023-04-15T08:54:01;4.00;;;3.60;;
18875;SDS011;9570;50.854;13.778;2023-04-15T08:56:27;4.03;;;3.67;;
18875;SDS011;9570;50.854;13.778;2023-04-15T08:58:56;4.00;;;3.60;;
18875;SDS011;9570;50.854;13.778;2023-04-15T09:01:23;4.27;;;3.87;;
18875;SDS011;9570;50.854;13.778;2023-04-15T09:03:49;3.90;;;3.60;;
18875;SDS011;9570;50.854;13.778;2023-04-15T09:06:15;4.33;;;3.73;;
18875;SDS011;9570;50.854;13.778;2023-04-15T09:08:41;4.53;;;4.13;;
18875;SDS011;9570;50.854;13.778;2023-04-15T09:11:07;4.80;;;4.40;;
18875;SDS011;9570;50.854;13.778;2023-04-15T09:13:33;4.37;;;4.00;;
18875;SDS011;9570;50.854;13.778;2023-04-15T09:16:00;5.00;;;4.50;;
18875;SDS011;9570;50.854;13.778;2023-04-15T09:18:28;4.97;;;4.47;;
18875;SDS011;9570;50.854;13.778;2023-04-15T09:20:55;4.40;;;4.00;;
18875;SDS011;9570;50.854;13.778;2023-04-15T09:23:35;4.57;;;4.17;;
18875;SDS011;9570;50.854;13.778;2023-04-15T09:26:02;4.27;;;3.87;;
18875;SDS011;9570;50.854;13.778;2023-04-15T09:28:29;4.20;;;3.73;;
18875;SDS011;9570;50.854;13.778;2023-04-15T09:30:56;4.10;;;3.80;;
18875;SDS011;9570;50.854;13.778;2023-04-15T09:33:25;4.10;;;3.70;;
18875;SDS011;9570;50.854;13.778;2023-04-15T09:35:59;4.27;;;3.77;;
18875;SDS011;9570;50.854;13.778;2023-04-15T09:38:26;4.50;;;4.10;;
18875;SDS011;9570;50.854;13.778;2023-04-15T09:40:52;4.33;;;3.93;;
18875;SDS011;9570;50.854;13.778;2023-04-15T09:43:18;3.97;;;3.63;;
18875;SDS011;9570;50.854;13.778;2023-04-15T09:45:47;4.60;;;4.10;;
18875;SDS011;9570;50.854;13.778;2023-04-15T09:48:15;5.60;;;4.33;;
18875;SDS011;9570;50.854;13.778;2023-04-15T09:50:42;4.50;;;4.10;;
18875;SDS011;9570;50.854;13.778;2023-04-15T09:53:09;4.63;;;4.23;;
18875;SDS011;9570;50.854;13.778;2023-04-15T09:55:36;3.73;;;3.43;;
18875;SDS011;9570;50.854;13.778;2023-04-15T09:58:01;4.60;;;4.20;;
18875;SDS011;9570;50.854;13.778;2023-04-15T10:00:32;5.10;;;4.60;;
18875;SDS011;9570;50.854;13.778;2023-04-15T10:02:58;5.00;;;4.60;;
18875;SDS011;9570;50.854;13.778;2023-04-15T10:05:23;4.93;;;4.37;;
18875;SDS011;9570;50.854;13.778;2023-04-15T10:07:49;4.87;;;4.47;;
18875;SDS011;9570;50.854;13.778;2023-04-15T10:10:15;4.50;;;4.10;;
18875;SDS011;9570;50.854;13.778;2023-04-15T10:12:41;4.80;;;4.40;;
18875;SDS011;9570;50.854;13.778;2023-04-15T10:15:11;4.63;;;4.23;;
18875;SDS011;9570;50.854;13.778;2023-04-15T10:17:42;3.50;;;3.20;;
18875;SDS011;9570;50.854;13.778;2023-04-15T10:20:09;4.07;;;3.70;;
18875;SDS011;9570;50.854;13.778;2023-04-15T10:22:36;3.50;;;3.20;;
18875;SDS011;9570;50.854;13.778;2023-04-15T10:25:02;3.87;;;3.33;;
18875;SDS011;9570;50.854;13.778;2023-04-15T10:27:29;2.90;;;2.63;;
18875;SDS011;9570;50.854;13.778;2023-04-15T10:29:55;3.33;;;3.03;;
18875;SDS011;9570;50.854;13.778;2023-04-15T10:32:21;3.60;;;3.07;;
18875;SDS011;9570;50.854;13.778;2023-04-15T10:34:49;3.10;;;2.80;;
18875;SDS011;9570;50.854;13.778;2023-04-15T10:37:32;4.43;;;2.70;;
18875;SDS011;9570;50.854;13.778;2023-04-15T10:39:59;3.60;;;2.60;;
18875;SDS011;9570;50.854;13.778;2023-04-15T10:42:24;3.43;;;3.00;;
18875;SDS011;9570;50.854;13.778;2023-04-15T10:44:58;3.10;;;2.80;;
18875;SDS011;9570;50.854;13.778;2023-04-15T10:47:24;3.00;;;2.80;;
18875;SDS011;9570;50.854;13.778;2023-04-15T10:50:00;3.70;;;3.20;;
18875;SDS011;9570;50.854;13.778;2023-04-15T10:52:27;4.23;;;3.50;;
18875;SDS011;9570;50.854;13.778;2023-04-15T10:55:28;4.13;;;3.60;;
18875;SDS011;9570;50.854;13.778;2023-04-15T10:57:46;4.50;;;4.10;;
18875;SDS011;9570;50.854;13.778;2023-04-15T11:00:17;4.10;;;3.70;;
18875;SDS011;9570;50.854;13.778;2023-04-15T11:02:45;4.50;;;4.00;;
18875;SDS011;9570;50.854;13.778;2023-04-15T11:05:13;4.17;;;3.80;;
18875;SDS011;9570;50.854;13.778;2023-04-15T11:12:42;4.40;;;4.00;;
18875;SDS011;9570;50.854;13.778;2023-04-15T11:15:30;4.30;;;3.90;;
18875;SDS011;9570;50.854;13.778;2023-04-15T11:18:08;3.90;;;3.53;;
18875;SDS011;9570;50.854;13.778;2023-04-15T11:20:37;3.90;;;3.60;;
18875;SDS011;9570;50.854;13.778;2023-04-15T11:23:03;4.50;;;4.20;;
18875;SDS011;9570;50.854;13.778;2023-04-15T11:25:30;4.30;;;3.90;;
18875;SDS011;9570;50.854;13.778;2023-04-15T11:27:57;4.83;;;4.43;;
18875;SDS011;9570;50.854;13.778;2023-04-15T11:30:25;4.67;;;4.27;;
18875;SDS011;9570;50.854;13.778;2023-04-15T11:33:02;5.43;;;4.67;;
18875;SDS011;9570;50.854;13.778;2023-04-15T11:35:30;4.43;;;4.03;;
18875;SDS011;9570;50.854;13.778;2023-04-15T11:37:56;4.57;;;4.17;;
18875;SDS011;9570;50.854;13.778;2023-04-15T11:40:23;3.67;;;3.37;;
18875;SDS011;9570;50.854;13.778;2023-04-15T11:45:46;3.60;;;3.07;;
18875;SDS011;9570;50.854;13.778;2023-04-15T11:48:31;3.70;;;3.37;;
18875;SDS011;9570;50.854;13.778;2023-04-15T11:50:59;3.40;;;3.10;;
18875;SDS011;9570;50.854;13.778;2023-04-15T11:53:39;3.67;;;3.37;;
18875;SDS011;9570;50.854;13.778;2023-04-15T11:56:10;3.57;;;3.23;;
18875;SDS011;9570;50.854;13.778;2023-04-15T11:58:42;4.03;;;3.57;;
18875;SDS011;9570;50.854;13.778;2023-04-15T12:01:08;3.23;;;2.90;;
18875;SDS011;9570;50.854;13.778;2023-04-15T12:03:36;3.57;;;3.27;;
18875;SDS011;9570;50.854;13.778;2023-04-15T12:06:11;2.70;;;2.50;;
18875;SDS011;9570;50.854;13.778;2023-04-15T12:14:12;3.83;;;3.53;;
18875;SDS011;9570;50.854;13.778;2023-04-15T12:16:59;3.50;;;3.20;;
18875;SDS011;9570;50.854;13.778;2023-04-15T12:19:27;4.70;;;4.30;;
18875;SDS011;9570;50.854;13.778;2023-04-15T12:21:57;4.00;;;3.70;;
18875;SDS011;9570;50.854;13.778;2023-04-15T12:24:24;5.23;;;3.57;;
18875;SDS011;9570;50.854;13.778;2023-04-15T12:26:51;4.23;;;3.83;;
18875;SDS011;9570;50.854;13.778;2023-04-15T12:29:18;5.50;;;4.27;;
18875;SDS011;9570;50.854;13.778;2023-04-15T12:31:47;3.67;;;3.37;;
18875;SDS011;9570;50.854;13.778;2023-04-15T12:34:27;3.90;;;3.43;;
18875;SDS011;9570;50.854;13.778;2023-04-15T12:36:54;3.67;;;3.37;;
18875;SDS011;9570;50.854;13.778;2023-04-15T12:39:22;3.03;;;2.83;;
18875;SDS011;9570;50.854;13.778;2023-04-15T12:41:49;3.63;;;3.10;;
18875;SDS011;9570;50.854;13.778;2023-04-15T12:44:14;2.40;;;2.20;;
18875;SDS011;9570;50.854;13.778;2023-04-15T12:46:40;2.60;;;2.40;;
18875;SDS011;9570;50.854;13.778;2023-04-15T12:49:06;2.50;;;2.30;;
18875;SDS011;9570;50.854;13.778;2023-04-15T12:51:32;3.67;;;2.80;;
18875;SDS011;9570;50.854;13.778;2023-04-15T12:53:57;4.00;;;2.90;;
18875;SDS011;9570;50.854;13.778;2023-04-15T12:56:23;3.53;;;3.23;;
18875;SDS011;9570;50.854;13.778;2023-04-15T12:58:48;3.40;;;3.10;;
18875;SDS011;9570;50.854;13.778;2023-04-15T13:01:14;3.50;;;3.20;;
18875;SDS011;9570;50.854;13.778;2023-04-15T13:03:39;4.13;;;3.73;;
18875;SDS011;9570;50.854;13.778;2023-04-15T13:06:05;5.07;;;3.40;;
18875;SDS011;9570;50.854;13.778;2023-04-15T13:08:31;4.93;;;4.00;;
18875;SDS011;9570;50.854;13.778;2023-04-15T13:10:57;4.03;;;3.63;;
18875;SDS011;9570;50.854;13.778;2023-04-15T13:13:22;3.93;;;3.60;;
18875;SDS011;9570;50.854;13.778;2023-04-15T13:15:48;4.67;;;3.77;;
18875;SDS011;9570;50.854;13.778;2023-04-15T13:18:13;4.10;;;3.70;;
18875;SDS011;9570;50.854;13.778;2023-04-15T13:20:39;4.43;;;4.03;;
18875;SDS011;9570;50.854;13.778;2023-04-15T13:23:05;4.43;;;3.93;;
18875;SDS011;9570;50.854;13.778;2023-04-15T13:25:31;3.93;;;3.63;;
18875;SDS011;9570;50.854;13.778;2023-04-15T13:27:56;4.53;;;4.00;;
18875;SDS011;9570;50.854;13.778;2023-04-15T13:30:22;4.43;;;3.80;;
18875;SDS011;9570;50.854;13.778;2023-04-15T13:32:48;3.90;;;3.50;;
18875;SDS011;9570;50.854;13.778;2023-04-15T13:35:13;4.40;;;3.80;;
18875;SDS011;9570;50.854;13.778;2023-04-15T13:37:39;4.13;;;3.70;;
18875;SDS011;9570;50.854;13.778;2023-04-15T13:40:06;4.00;;;3.60;;
18875;SDS011;9570;50.854;13.778;2023-04-15T13:42:32;4.30;;;3.30;;
18875;SDS011;9570;50.854;13.778;2023-04-15T13:44:57;5.27;;;3.30;;
18875;SDS011;9570;50.854;13.778;2023-04-15T13:47:23;4.33;;;3.40;;
18875;SDS011;9570;50.854;13.778;2023-04-15T13:49:48;4.07;;;3.43;;
18875;SDS011;9570;50.854;13.778;2023-04-15T13:52:14;3.00;;;2.70;;
18875;SDS011;9570;50.854;13.778;2023-04-15T13:54:39;2.90;;;2.60;;
18875;SDS011;9570;50.854;13.778;2023-04-15T13:57:05;2.73;;;2.53;;
18875;SDS011;9570;50.854;13.778;2023-04-15T13:59:32;2.87;;;2.63;;
18875;SDS011;9570;50.854;13.778;2023-04-15T14:01:58;4.33;;;2.70;;
18875;SDS011;9570;50.854;13.778;2023-04-15T14:04:24;3.60;;;2.37;;
18875;SDS011;9570;50.854;13.778;2023-04-15T14:06:49;2.77;;;2.50;;
18875;SDS011;9570;50.854;13.778;2023-04-15T14:09:16;2.67;;;2.47;;
18875;SDS011;9570;50.854;13.778;2023-04-15T14:11:42;3.10;;;2.80;;
18875;SDS011;9570;50.854;13.778;2023-04-15T14:14:07;3.13;;;2.83;;
18875;SDS011;9570;50.854;13.778;2023-04-15T14:16:33;3.47;;;2.50;;
18875;SDS011;9570;50.854;13.778;2023-04-15T14:18:58;2.67;;;2.47;;
18875;SDS011;9570;50.854;13.778;2023-04-15T14:21:25;3.03;;;2.77;;
18875;SDS011;9570;50.854;13.778;2023-04-15T14:23:52;3.20;;;2.90;;
18875;SDS011;9570;50.854;13.778;2023-04-15T14:26:17;2.30;;;2.10;;
18875;SDS011;9570;50.854;13.778;2023-04-15T14:28:43;2.60;;;2.40;;
18875;SDS011;9570;50.854;13.778;2023-04-15T14:31:09;2.50;;;2.30;;
18875;SDS011;9570;50.854;13.778;2023-04-15T14:33:35;2.77;;;2.57;;
18875;SDS011;9570;50.854;13.778;2023-04-15T14:36:00;2.50;;;2.30;;
18875;SDS011;9570;50.854;13.778;2023-04-15T14:38:26;2.40;;;2.20;;
18875;SDS011;9570;50.854;13.778;2023-04-15T14:40:51;2.77;;;2.57;;
18875;SDS011;9570;50.854;13.778;2023-04-15T14:43:17;2.50;;;2.30;;
18875;SDS011;9570;50.854;13.778;2023-04-15T14:45:42;2.40;;;2.20;;
18875;SDS011;9570;50.854;13.778;2023-04-15T14:48:08;2.47;;;2.27;;
18875;SDS011;9570;50.854;13.778;2023-04-15T14:50:34;3.07;;;2.43;;
18875;SDS011;9570;50.854;13.778;2023-04-15T14:53:00;2.30;;;2.10;;
18875;SDS011;9570;50.854;13.778;2023-04-15T14:55:25;3.50;;;3.20;;
18875;SDS011;9570;50.854;13.778;2023-04-15T14:57:51;2.53;;;2.33;;